Watts Bar Observed Data For Previous 48 Hours

Caption
Day and Hour Reservoir Elevation (behind dam)* Tailwater Elevation (below dam)* Average Hourly Discharge*
3/18/2019 2 AM EDT 736.13 686.12 98,688
3/18/2019 3 AM EDT 736.14 686.13 98,698
3/18/2019 4 AM EDT 736.13 686.10 98,716
3/18/2019 5 AM EDT 736.11 686.06 98,669
3/18/2019 6 AM EDT 736.12 686.09 98,680
3/18/2019 7 AM EDT 736.11 686.07 98,657
3/18/2019 8 AM EDT 736.12 686.05 98,715
3/18/2019 9 AM EDT 736.12 686.06 98,733
3/18/2019 10 AM EDT 736.10 686.09 98,734
3/18/2019 11 AM EDT 736.11 686.08 98,748
3/18/2019 12 PM EDT 736.11 686.06 98,776
3/18/2019 1 PM EDT 736.15 685.87 98,783
3/18/2019 2 PM EDT 736.17 685.67 92,467
3/18/2019 3 PM EDT 736.19 685.57 92,516
3/18/2019 4 PM EDT 736.20 685.52 92,544
3/18/2019 5 PM EDT 736.23 685.53 92,546
3/18/2019 6 PM EDT 736.26 685.48 92,608
3/18/2019 7 PM EDT 736.29 685.47 92,606
3/18/2019 8 PM EDT 736.30 685.44 92,576
3/18/2019 9 PM EDT 736.30 685.48 92,577
3/18/2019 10 PM EDT 736.32 685.44 92,577
3/18/2019 11 PM EDT 736.35 685.47 92,648
3/19/2019 12 AM EDT 736.37 685.47 92,661
3/19/2019 1 AM EDT 736.38 685.47 92,695
3/19/2019 2 AM EDT 736.41 685.48 92,777
3/19/2019 3 AM EDT 736.43 685.48 92,799
3/19/2019 4 AM EDT 736.45 685.46 92,808
3/19/2019 5 AM EDT 736.47 685.46 92,842
3/19/2019 6 AM EDT 736.48 685.45 92,837
3/19/2019 7 AM EDT 736.50 685.48 92,885
3/19/2019 8 AM EDT 736.51 685.45 92,918
3/19/2019 9 AM EDT 736.53 685.46 92,901
3/19/2019 10 AM EDT 736.55 685.48 92,925
3/19/2019 11 AM EDT 736.56 685.45 92,942
3/19/2019 12 PM EDT 736.60 685.48 92,962
3/19/2019 1 PM EDT 736.62 685.48 93,009
3/19/2019 2 PM EDT 736.62 685.49 93,037
3/19/2019 3 PM EDT 736.63 685.46 92,987
3/19/2019 4 PM EDT 736.65 685.45 93,056
3/19/2019 5 PM EDT 736.65 685.50 93,059
3/19/2019 6 PM EDT 736.66 685.48 93,060
3/19/2019 7 PM EDT 736.65 685.50 93,023
3/19/2019 8 PM EDT 736.63 685.47 93,002
3/19/2019 9 PM EDT 736.63 685.53 92,981
3/19/2019 10 PM EDT 736.62 685.46 92,900
3/19/2019 11 PM EDT 736.61 685.51 92,947
3/20/2019 12 AM EDT 736.60 685.53 92,973
3/20/2019 1 AM EDT 736.59 685.53 92,943
3/20/2019 2 AM EDT 736.58 685.57 92,945
3/20/2019 3 AM EDT 736.57 685.55 92,915
3/20/2019 4 AM EDT 736.56 685.52 92,894
3/20/2019 5 AM EDT 736.56 685.55 92,911
3/20/2019 6 AM EDT 736.54 685.49 92,878
3/20/2019 7 AM EDT 736.53 685.58 92,816
3/20/2019 8 AM EDT 736.52 685.56 92,799

Elevations are in feet above sea level. Discharges are in cubic feet per second and are reported at the end of the hour.